Time;durP1;ratioP1;P1;durP2;ratioP2;P2;SDS_P1;SDS_P2;PMS_P1;PMS_P2;Temp;Humidity;BMP_temperature;BMP_pressure;BME280_temperature;BME280_humidity;BME280_pressure;Samples;Min_cycle;Max_cycle;Signal;HPM_P1;HPM_P2
2021/01/10 08:47:17;;;;;;;8.48;5.78;;;18.90;50.50;;;;;;5092814;27;1457096;-77
2021/01/10 08:49:43;;;;;;;8.45;5.70;;;20.00;46.40;;;;;;5088885;28;20040;-67
2021/01/10 08:52:09;;;;;;;7.82;5.90;;;20.00;46.30;;;;;;5110535;28;20027;-68
2021/01/10 08:54:35;;;;;;;8.20;5.90;;;20.00;45.90;;;;;;5124405;28;20019;-67
2021/01/10 08:57:00;;;;;;;8.50;6.15;;;20.10;45.60;;;;;;5131118;28;20384;-67
2021/01/10 08:59:36;;;;;;;9.15;6.63;;;20.20;45.20;;;;;;5095395;28;20028;-67
2021/01/10 09:02:08;;;;;;;10.15;6.53;;;20.30;45.10;;;;;;5131210;28;20023;-67
2021/01/10 14:40:46;;;;;;;6.25;3.95;;;15.80;66.60;;;;;;5080369;28;20362;-73
2021/01/10 14:43:11;;;;;;;6.18;3.70;;;17.80;53.90;;;;;;5067274;28;20044;-73
2021/01/10 14:45:37;;;;;;;4.93;3.92;;;18.30;51.50;;;;;;5066053;28;20492;-70
2021/01/10 14:48:03;;;;;;;4.57;3.42;;;18.80;50.20;;;;;;5066911;28;20071;-70
2021/01/10 14:50:29;;;;;;;5.95;3.58;;;19.10;48.90;;;;;;5069621;28;20043;-73
2021/01/10 14:52:54;;;;;;;4.78;3.78;;;19.50;47.90;;;;;;5069877;28;20028;-71
2021/01/10 14:55:20;;;;;;;4.25;3.60;;;19.80;47.20;;;;;;5069758;28;20028;-71
2021/01/10 14:57:45;;;;;;;5.57;4.00;;;20.00;46.30;;;;;;5069663;28;20078;-70
2021/01/10 15:03:11;;;;;;;8.40;6.15;;;18.50;33.30;;;;;;5066442;27;1470453;-77
2021/01/10 15:05:37;;;;;;;9.88;7.40;;;14.00;40.30;;;;;;5086475;28;20036;-76
2021/01/10 15:08:02;;;;;;;11.18;7.85;;;11.90;45.80;;;;;;5089891;28;20028;-76
2021/01/10 15:10:28;;;;;;;11.85;8.45;;;10.40;49.60;;;;;;5072445;28;20078;-76
2021/01/10 15:12:53;;;;;;;10.88;8.20;;;9.50;53.60;;;;;;5086975;28;20035;-83
2021/01/10 15:15:19;;;;;;;10.60;8.10;;;8.80;55.50;;;;;;5088537;28;20063;-75
2021/01/10 15:17:45;;;;;;;13.60;9.40;;;8.30;57.20;;;;;;5089656;28;20032;-76
2021/01/10 15:20:11;;;;;;;16.90;13.13;;;7.90;58.40;;;;;;5090174;28;20029;-76
2021/01/10 15:22:36;;;;;;;14.23;10.57;;;7.70;59.60;;;;;;5090168;28;20034;-77
2021/01/10 15:25:02;;;;;;;14.63;11.40;;;7.40;60.70;;;;;;5090233;28;20033;-76
2021/01/10 15:27:28;;;;;;;15.40;12.40;;;7.20;61.60;;;;;;5090059;28;20028;-75
2021/01/10 15:29:54;;;;;;;16.23;12.80;;;7.00;62.60;;;;;;5090355;28;20025;-76
2021/01/10 15:32:19;;;;;;;16.87;13.03;;;6.90;63.20;;;;;;5083078;28;20534;-76
2021/01/10 15:34:45;;;;;;;18.27;13.63;;;6.90;63.80;;;;;;5088861;28;20036;-75
2021/01/10 15:37:10;;;;;;;18.20;13.47;;;6.90;64.00;;;;;;5085774;28;20036;-75
2021/01/10 15:39:36;;;;;;;17.10;14.47;;;6.80;65.10;;;;;;5086316;28;20495;-75
2021/01/10 15:42:01;;;;;;;20.37;14.67;;;6.70;65.20;;;;;;5089569;28;20489;-77
2021/01/10 15:44:27;;;;;;;19.20;16.07;;;6.70;65.30;;;;;;5089606;28;20032;-76
2021/01/10 15:46:53;;;;;;;18.70;14.30;;;6.70;65.40;;;;;;5090010;28;20039;-76
2021/01/10 15:49:18;;;;;;;19.63;14.83;;;6.70;65.50;;;;;;5083597;28;20111;-76
2021/01/10 15:51:44;;;;;;;17.00;14.50;;;6.60;65.80;;;;;;5083233;28;20495;-75
2021/01/10 15:54:09;;;;;;;19.97;15.03;;;6.50;66.00;;;;;;5070960;28;20032;-75
2021/01/10 15:56:35;;;;;;;18.90;14.17;;;6.50;66.30;;;;;;5089602;28;20036;-77
2021/01/10 15:59:01;;;;;;;19.57;14.23;;;6.30;66.40;;;;;;5089257;28;20030;-78
2021/01/10 16:01:30;;;;;;;15.00;13.17;;;6.20;66.80;;;;;;5089412;28;20412;-75
2021/01/10 16:03:56;;;;;;;16.63;11.93;;;6.20;66.90;;;;;;5089503;28;20098;-75
2021/01/10 16:06:29;;;;;;;16.40;12.83;;;6.20;66.90;;;;;;5088841;28;20758;-78
2021/01/10 16:08:55;;;;;;;15.83;12.60;;;6.20;66.90;;;;;;5089229;28;20035;-75
2021/01/10 16:11:20;;;;;;;17.43;10.80;;;6.20;66.70;;;;;;5083127;28;20036;-75
2021/01/10 16:13:46;;;;;;;11.30;10.10;;;6.10;66.80;;;;;;5079213;28;20099;-76
2021/01/10 16:16:18;;;;;;;12.83;10.47;;;6.10;66.80;;;;;;5076174;28;20082;-74
2021/01/10 16:18:45;;;;;;;13.47;10.77;;;6.10;66.70;;;;;;5076036;28;20024;-74
2021/01/10 16:21:11;;;;;;;19.27;11.00;;;6.00;67.00;;;;;;5075947;28;20028;-75
2021/01/10 16:23:36;;;;;;;15.03;11.40;;;6.00;67.00;;;;;;5058638;28;20112;-75
2021/01/10 16:26:02;;;;;;;17.53;11.17;;;6.00;67.50;;;;;;5041569;28;20073;-75
2021/01/10 16:28:27;;;;;;;14.33;11.63;;;6.00;67.30;;;;;;5075961;28;20361;-74
2021/01/10 16:30:53;;;;;;;15.47;12.10;;;5.90;67.70;;;;;;5075965;28;20099;-75
2021/01/10 16:33:19;;;;;;;18.20;12.63;;;5.90;68.00;;;;;;5075852;28;20147;-75
2021/01/10 16:35:44;;;;;;;17.50;12.30;;;5.90;68.20;;;;;;5075699;28;20035;-74
2021/01/10 16:38:10;;;;;;;16.80;13.00;;;5.90;68.10;;;;;;5075895;28;20522;-75
2021/01/10 16:40:36;;;;;;;20.37;13.90;;;5.90;67.90;;;;;;5075738;28;20031;-75
2021/01/10 16:43:04;;;;;;;15.80;12.63;;;5.90;67.80;;;;;;5057933;28;20063;-75
2021/01/10 16:45:30;;;;;;;18.80;13.03;;;5.80;67.70;;;;;;5075795;28;20028;-75
2021/01/10 16:47:55;;;;;;;27.20;19.90;;;5.70;67.50;;;;;;5058002;28;20025;-75
2021/01/10 16:50:21;;;;;;;21.57;17.63;;;5.60;68.20;;;;;;5075521;28;20024;-76
2021/01/10 16:52:50;;;;;;;17.10;14.53;;;5.50;68.80;;;;;;5075724;28;20115;-77
2021/01/10 16:55:15;;;;;;;16.60;12.33;;;5.50;68.60;;;;;;5075568;28;20036;-77
2021/01/10 16:57:42;;;;;;;18.50;12.47;;;5.60;68.30;;;;;;5057718;28;20440;-78
2021/01/10 17:00:09;;;;;;;17.00;12.57;;;5.60;67.80;;;;;;5075558;28;20412;-77
2021/01/10 17:02:35;;;;;;;14.37;12.33;;;5.60;67.90;;;;;;5075069;28;20044;-77
2021/01/10 17:05:00;;;;;;;27.43;19.23;;;5.60;67.40;;;;;;5075229;28;20031;-78
2021/01/10 17:07:26;;;;;;;32.60;23.87;;;5.60;68.00;;;;;;5075413;28;20028;-77
2021/01/10 17:09:52;;;;;;;42.10;29.77;;;5.70;68.60;;;;;;5075416;28;20025;-77
2021/01/10 17:12:17;;;;;;;39.50;30.47;;;5.60;69.30;;;;;;5075139;28;20062;-77
2021/01/10 17:14:43;;;;;;;40.87;31.90;;;5.60;69.30;;;;;;5075260;28;20150;-77
2021/01/10 17:17:08;;;;;;;46.00;34.90;;;5.60;69.50;;;;;;5075025;28;20055;-78
2021/01/10 17:19:34;;;;;;;39.23;31.47;;;5.60;69.60;;;;;;5074936;28;20108;-77
2021/01/10 17:21:59;;;;;;;45.30;34.07;;;5.60;69.40;;;;;;5074850;28;20031;-77
2021/01/10 17:24:25;;;;;;;51.00;34.60;;;5.50;69.40;;;;;;5074285;28;20119;-77
2021/01/10 17:26:50;;;;;;;46.13;35.13;;;5.40;69.60;;;;;;5074303;28;20033;-77
2021/01/10 17:29:16;;;;;;;48.33;35.13;;;5.40;70.00;;;;;;5074784;28;20369;-77
2021/01/10 17:31:42;;;;;;;49.43;36.23;;;5.30;69.50;;;;;;5074899;28;20449;-77
2021/01/10 17:34:07;;;;;;;61.10;37.87;;;5.30;69.60;;;;;;5074804;28;20036;-77
2021/01/10 17:36:33;;;;;;;51.67;37.60;;;5.20;69.80;;;;;;5074816;28;20028;-77
2021/01/10 17:38:59;;;;;;;46.73;35.07;;;5.10;69.80;;;;;;5074700;28;20021;-76
2021/01/10 17:41:24;;;;;;;46.33;33.47;;;5.20;70.00;;;;;;5074906;28;20031;-77
2021/01/10 17:43:50;;;;;;;50.17;34.40;;;5.10;70.20;;;;;;5074488;28;20478;-76
2021/01/10 17:46:20;;;;;;;48.20;34.07;;;5.10;70.40;;;;;;5074886;28;20066;-78
2021/01/10 17:48:46;;;;;;;41.23;33.90;;;5.10;70.20;;;;;;5056631;28;20537;-76
2021/01/10 17:51:12;;;;;;;46.13;34.77;;;5.10;70.10;;;;;;5074234;28;20386;-79
2021/01/10 17:53:37;;;;;;;49.50;36.77;;;5.00;70.40;;;;;;5068518;28;20028;-77
2021/01/10 17:56:05;;;;;;;45.13;33.63;;;4.90;70.40;;;;;;5070492;28;20029;-77
2021/01/10 17:58:30;;;;;;;44.20;34.27;;;4.80;70.80;;;;;;5051749;28;20047;-76
2021/01/10 18:00:56;;;;;;;46.20;35.83;;;4.80;71.00;;;;;;5073806;28;20025;-77
2021/01/10 18:03:22;;;;;;;44.63;34.50;;;4.80;71.10;;;;;;5071933;28;20036;-77
2021/01/10 18:05:47;;;;;;;41.57;33.17;;;4.80;71.40;;;;;;5073539;28;20513;-77
2021/01/10 18:08:13;;;;;;;46.00;33.70;;;4.70;71.50;;;;;;5073481;28;20039;-77
2021/01/10 18:10:38;;;;;;;41.77;33.83;;;4.80;71.60;;;;;;5071645;28;20071;-77
2021/01/10 18:13:04;;;;;;;42.60;33.90;;;4.80;71.30;;;;;;5055494;28;20524;-78
2021/01/10 18:15:30;;;;;;;44.13;33.70;;;4.80;71.20;;;;;;5073616;28;20164;-77
2021/01/10 18:17:55;;;;;;;46.83;35.17;;;4.80;71.40;;;;;;5073943;28;20032;-78
2021/01/10 18:20:22;;;;;;;44.50;35.37;;;4.80;71.40;;;;;;5073723;28;20035;-77
2021/01/10 18:22:48;;;;;;;42.97;32.97;;;4.80;71.60;;;;;;5055783;28;20036;-77
2021/01/10 18:25:13;;;;;;;46.30;35.40;;;4.70;71.50;;;;;;5057095;28;20037;-77
2021/01/10 18:27:39;;;;;;;45.67;35.10;;;4.70;71.80;;;;;;5053443;28;20025;-77
2021/01/10 18:30:06;;;;;;;46.47;35.20;;;4.70;71.90;;;;;;5053354;28;20040;-77
2021/01/10 18:32:31;;;;;;;45.87;34.47;;;4.70;71.90;;;;;;5053641;28;20706;-77
2021/01/10 18:34:57;;;;;;;46.50;35.60;;;4.80;72.10;;;;;;5053366;28;20082;-78
2021/01/10 18:37:23;;;;;;;43.17;33.13;;;4.80;71.90;;;;;;5056080;28;20409;-83
2021/01/10 18:39:49;;;;;;;43.23;34.47;;;4.70;71.90;;;;;;5051300;28;20025;-78
2021/01/10 18:42:15;;;;;;;44.53;34.07;;;4.70;72.00;;;;;;5072352;28;20032;-77
2021/01/10 18:44:41;;;;;;;57.30;39.77;;;4.70;72.40;;;;;;5073352;28;20029;-77
2021/01/10 18:47:07;;;;;;;48.90;36.53;;;4.70;72.40;;;;;;5073091;28;20036;-77
2021/01/10 18:49:33;;;;;;;49.63;34.67;;;4.70;72.40;;;;;;5052311;28;20029;-77
2021/01/10 18:51:58;;;;;;;46.87;34.27;;;4.70;72.50;;;;;;5072551;28;20036;-78
2021/01/10 18:54:24;;;;;;;48.13;34.50;;;4.60;72.70;;;;;;5068727;28;20028;-77
2021/01/10 18:56:49;;;;;;;50.87;35.20;;;4.60;72.70;;;;;;5072634;28;20025;-78
2021/01/10 18:59:15;;;;;;;47.00;34.37;;;4.70;72.80;;;;;;5068618;28;20066;-78
2021/01/10 19:01:41;;;;;;;43.40;34.13;;;4.60;72.60;;;;;;5072653;28;20097;-77
2021/01/10 19:04:06;;;;;;;46.07;33.30;;;4.60;72.90;;;;;;5073250;28;20533;-77
2021/01/10 19:06:32;;;;;;;58.47;40.50;;;4.60;73.20;;;;;;5073216;28;20108;-77
2021/01/10 19:08:58;;;;;;;54.10;38.60;;;4.60;73.40;;;;;;5073010;28;20025;-77
2021/01/10 19:11:24;;;;;;;46.30;36.23;;;4.60;73.60;;;;;;5069654;28;20058;-86
2021/01/10 19:13:50;;;;;;;44.13;33.17;;;4.60;73.70;;;;;;5069317;28;20113;-77
2021/01/10 19:16:15;;;;;;;45.47;35.63;;;4.60;73.80;;;;;;5073281;28;20032;-77
2021/01/10 19:18:44;;;;;;;54.10;41.10;;;4.50;74.00;;;;;;5073158;28;20027;-77
2021/01/10 19:21:10;;;;;;;48.33;36.70;;;4.60;74.30;;;;;;5055194;28;20029;-77
2021/01/10 19:23:36;;;;;;;49.23;37.73;;;4.60;74.00;;;;;;5055295;28;20039;-77
2021/01/10 19:26:02;;;;;;;53.87;38.83;;;4.70;74.10;;;;;;5055115;28;20035;-77
2021/01/10 19:28:27;;;;;;;48.23;39.80;;;4.70;73.70;;;;;;5073201;28;20032;-77
2021/01/10 19:30:53;;;;;;;45.27;33.40;;;4.70;73.80;;;;;;5072999;28;20049;-77
2021/01/10 19:33:18;;;;;;;45.10;35.00;;;4.70;74.00;;;;;;5055276;28;20104;-77
2021/01/10 19:35:44;;;;;;;47.20;35.33;;;4.70;74.20;;;;;;5073378;28;20119;-77
2021/01/10 19:38:10;;;;;;;50.33;36.00;;;4.70;74.30;;;;;;5055065;28;20020;-77
2021/01/10 19:40:35;;;;;;;56.40;40.43;;;4.70;74.40;;;;;;5072947;28;20037;-77
2021/01/10 19:43:02;;;;;;;50.53;37.67;;;4.80;74.40;;;;;;5072813;28;20134;-78
2021/01/10 19:45:28;;;;;;;47.07;35.67;;;4.80;74.30;;;;;;5055627;28;20033;-77
2021/01/10 19:47:54;;;;;;;48.70;35.93;;;4.80;74.30;;;;;;5073362;28;20074;-77
2021/01/10 19:50:20;;;;;;;49.50;37.33;;;4.90;74.10;;;;;;5076807;28;20111;-78
2021/01/10 19:52:45;;;;;;;43.83;36.00;;;4.90;74.20;;;;;;5076715;28;20500;-77
2021/01/10 19:55:11;;;;;;;44.57;35.60;;;4.90;74.20;;;;;;5058733;28;20359;-77
2021/01/10 19:57:37;;;;;;;47.73;33.33;;;4.90;74.20;;;;;;5041827;28;20025;-78
2021/01/10 20:00:08;;;;;;;41.20;31.83;;;4.90;74.40;;;;;;5076553;28;20033;-77
2021/01/10 20:02:37;;;;;;;40.22;32.22;;;5.00;74.00;;;;;;5041790;28;20040;-77
2021/01/10 20:05:04;;;;;;;43.47;31.87;;;4.90;74.60;;;;;;5076488;28;20029;-77
2021/01/10 20:07:29;;;;;;;40.30;31.93;;;4.90;74.10;;;;;;5058629;28;20032;-77
2021/01/10 20:09:55;;;;;;;43.60;32.07;;;4.90;74.20;;;;;;5058516;28;20439;-77
2021/01/10 20:12:21;;;;;;;43.30;32.50;;;4.90;74.40;;;;;;5076177;28;20067;-77
2021/01/10 20:14:46;;;;;;;43.10;32.20;;;4.90;74.30;;;;;;5076554;28;20017;-77
2021/01/10 20:17:12;;;;;;;56.40;38.50;;;4.80;74.30;;;;;;5076382;28;20544;-77
2021/01/10 20:19:47;;;;;;;59.93;42.20;;;4.80;74.30;;;;;;5076259;28;20024;-77
2021/01/10 20:22:13;;;;;;;57.17;39.33;;;4.80;74.30;;;;;;5076212;28;20120;-77
2021/01/10 20:24:40;;;;;;;54.40;36.37;;;4.70;74.30;;;;;;5076269;28;20059;-77
2021/01/10 20:27:09;;;;;;;43.40;33.63;;;4.70;74.20;;;;;;5058171;28;20028;-78
2021/01/10 20:29:34;;;;;;;54.00;36.67;;;4.80;74.20;;;;;;5076291;28;20412;-77
2021/01/10 20:32:02;;;;;;;47.83;34.37;;;4.80;74.00;;;;;;5076403;28;20043;-77
2021/01/10 20:34:27;;;;;;;47.80;34.60;;;4.80;73.90;;;;;;5076004;28;20020;-77
2021/01/10 20:36:53;;;;;;;46.63;34.27;;;4.80;73.80;;;;;;5057922;28;20017;-77
2021/01/10 20:39:19;;;;;;;44.13;32.93;;;4.80;73.90;;;;;;5075789;28;20024;-77
2021/01/10 20:41:44;;;;;;;45.00;33.20;;;4.60;73.90;;;;;;5075870;28;20131;-77
2021/01/10 20:44:10;;;;;;;43.30;33.70;;;4.70;74.30;;;;;;5075742;28;20036;-77
2021/01/10 20:46:35;;;;;;;47.37;32.23;;;4.70;74.20;;;;;;5075833;28;20473;-77
2021/01/10 20:49:01;;;;;;;45.53;33.37;;;4.70;74.00;;;;;;5057756;28;20062;-77
2021/01/10 20:51:28;;;;;;;42.97;33.73;;;4.70;74.30;;;;;;5075826;28;20477;-77
2021/01/10 20:53:53;;;;;;;44.13;32.93;;;4.60;74.40;;;;;;5075350;28;20477;-77
2021/01/10 20:56:19;;;;;;;47.17;35.20;;;4.60;74.50;;;;;;5075642;28;20032;-77
2021/01/10 20:58:44;;;;;;;42.70;35.07;;;4.60;74.40;;;;;;5075545;28;20050;-77
2021/01/10 21:01:10;;;;;;;44.93;33.80;;;4.50;74.80;;;;;;5075615;28;20040;-81
2021/01/10 21:03:36;;;;;;;49.07;36.23;;;4.50;74.90;;;;;;5075635;28;20029;-77
2021/01/10 21:06:01;;;;;;;46.30;34.50;;;4.50;74.90;;;;;;5075204;28;20028;-77
2021/01/10 21:08:27;;;;;;;45.40;34.17;;;4.50;74.80;;;;;;5040726;28;20435;-78
2021/01/10 21:10:52;;;;;;;46.23;34.40;;;4.40;75.00;;;;;;5057153;28;20064;-77
2021/01/10 21:13:18;;;;;;;43.07;34.63;;;4.40;75.30;;;;;;5075991;28;20380;-77
2021/01/10 21:15:44;;;;;;;43.80;33.60;;;4.40;75.40;;;;;;5057320;28;20033;-78
2021/01/10 21:18:09;;;;;;;45.10;34.63;;;4.40;75.50;;;;;;5057242;28;20401;-77
2021/01/10 21:20:35;;;;;;;48.20;34.83;;;4.40;75.60;;;;;;5075200;28;20033;-77
2021/01/10 21:23:00;;;;;;;47.03;34.90;;;4.40;75.50;;;;;;5074943;28;20070;-77
2021/01/10 21:25:26;;;;;;;48.03;34.73;;;4.40;75.40;;;;;;5075164;28;20037;-77
2021/01/10 21:27:52;;;;;;;45.80;33.87;;;4.40;75.30;;;;;;5075001;28;20024;-77
2021/01/10 21:30:18;;;;;;;48.57;34.87;;;4.30;75.50;;;;;;5075049;28;20029;-77
2021/01/10 21:32:43;;;;;;;48.83;36.23;;;4.30;75.80;;;;;;5074654;28;20055;-77
2021/01/10 21:35:09;;;;;;;46.43;35.17;;;4.30;75.70;;;;;;5074932;28;20489;-77
2021/01/10 21:37:36;;;;;;;52.17;37.40;;;4.30;75.70;;;;;;5074548;28;20070;-77
2021/01/10 21:40:06;;;;;;;46.83;35.80;;;4.30;75.80;;;;;;5056864;28;20020;-77
2021/01/10 21:42:31;;;;;;;47.13;35.70;;;4.30;75.80;;;;;;5056674;28;20393;-77
2021/01/10 21:44:57;;;;;;;54.07;36.57;;;4.40;75.80;;;;;;5074924;28;20036;-77
2021/01/10 21:47:23;;;;;;;49.97;35.23;;;4.30;75.70;;;;;;5074685;28;20107;-77
2021/01/10 21:49:49;;;;;;;48.83;37.13;;;4.30;76.00;;;;;;5074725;28;20031;-77
2021/01/10 21:52:15;;;;;;;51.83;36.67;;;4.30;76.00;;;;;;5039957;28;20374;-77
2021/01/10 21:54:40;;;;;;;57.07;37.23;;;4.30;76.00;;;;;;5074462;28;20036;-77
2021/01/10 21:57:06;;;;;;;52.43;38.27;;;4.30;76.10;;;;;;5074463;28;20028;-77
2021/01/10 21:59:31;;;;;;;52.03;36.23;;;4.30;76.10;;;;;;5074268;28;20043;-77
2021/01/10 22:01:57;;;;;;;56.13;37.43;;;4.30;76.20;;;;;;5074117;28;20452;-77
2021/01/10 22:04:22;;;;;;;54.17;38.63;;;4.40;76.10;;;;;;5056573;28;20362;-77
2021/01/10 22:06:48;;;;;;;53.83;38.63;;;4.50;76.20;;;;;;5074012;28;20074;-77
2021/01/10 22:09:14;;;;;;;51.77;36.67;;;4.50;75.50;;;;;;5056301;28;20039;-77
2021/01/10 22:11:40;;;;;;;52.13;37.47;;;4.50;75.50;;;;;;5038949;28;20032;-77
2021/01/10 22:14:06;;;;;;;49.47;37.20;;;4.50;75.40;;;;;;5056461;28;20116;-77
2021/01/10 22:16:31;;;;;;;52.83;38.40;;;4.60;75.20;;;;;;5039776;28;20024;-77
2021/01/10 22:18:57;;;;;;;50.70;37.70;;;4.60;75.30;;;;;;5074061;28;20079;-77
2021/01/10 22:21:22;;;;;;;50.00;38.00;;;4.50;75.30;;;;;;5074170;28;20036;-78
2021/01/10 22:23:52;;;;;;;54.00;39.37;;;4.50;75.40;;;;;;5056149;28;20036;-77
2021/01/10 22:26:30;;;;;;;56.47;38.73;;;4.40;75.70;;;;;;5056110;28;20139;-77
2021/01/10 22:28:56;;;;;;;56.77;39.90;;;4.50;75.90;;;;;;5056247;28;20032;-77
2021/01/10 22:31:22;;;;;;;55.10;39.67;;;4.50;75.90;;;;;;5055991;28;20036;-77
2021/01/10 22:33:48;;;;;;;55.43;40.03;;;4.50;76.00;;;;;;5073718;28;20031;-78
2021/01/10 22:36:13;;;;;;;56.03;39.23;;;4.40;76.20;;;;;;5073586;28;20025;-77
2021/01/10 22:38:39;;;;;;;57.97;39.43;;;4.40;76.30;;;;;;5074393;28;20032;-77
2021/01/10 22:41:07;;;;;;;54.20;38.30;;;4.40;76.50;;;;;;5073758;28;20469;-77
2021/01/10 22:43:33;;;;;;;55.47;39.43;;;4.50;76.50;;;;;;5073683;28;20032;-77
2021/01/10 22:45:58;;;;;;;55.37;39.90;;;4.50;76.40;;;;;;5073794;28;20025;-77
2021/01/10 22:48:24;;;;;;;55.67;39.23;;;4.60;76.10;;;;;;5073469;28;20029;-78
2021/01/10 22:50:50;;;;;;;54.30;38.20;;;4.60;75.90;;;;;;5055778;28;20032;-77
2021/01/10 22:53:15;;;;;;;59.03;41.77;;;4.60;75.90;;;;;;5073669;28;20058;-77
2021/01/10 22:55:41;;;;;;;54.07;39.27;;;4.60;76.20;;;;;;5055884;28;20063;-79
2021/01/10 22:58:07;;;;;;;59.67;40.10;;;4.50;76.70;;;;;;5073555;28;20032;-77
2021/01/10 23:00:32;;;;;;;57.60;40.30;;;4.50;76.90;;;;;;5055649;28;20119;-77
2021/01/10 23:02:58;;;;;;;58.40;40.30;;;4.50;77.00;;;;;;5073581;28;20076;-77
2021/01/10 23:05:24;;;;;;;58.60;39.63;;;4.50;76.90;;;;;;5073917;28;20078;-77
2021/01/10 23:07:49;;;;;;;56.40;40.37;;;4.60;77.00;;;;;;5073550;28;20530;-77
2021/01/10 23:10:15;;;;;;;59.13;40.70;;;4.60;76.90;;;;;;5073491;28;20037;-77
2021/01/10 23:12:41;;;;;;;62.90;39.67;;;4.60;76.90;;;;;;5073399;28;20024;-77
2021/01/10 23:15:09;;;;;;;59.07;41.20;;;4.60;77.20;;;;;;5073508;28;20154;-77
2021/01/10 23:17:36;;;;;;;69.10;41.37;;;4.60;77.90;;;;;;5055995;28;20024;-78
2021/01/10 23:20:06;;;;;;;61.47;41.00;;;4.50;77.50;;;;;;5073406;28;20028;-77
2021/01/10 23:22:31;;;;;;;61.00;41.53;;;4.50;77.90;;;;;;5073278;28;20027;-77
2021/01/10 23:24:57;;;;;;;62.23;41.37;;;4.50;78.10;;;;;;5077334;28;20033;-77
2021/01/10 23:27:23;;;;;;;63.00;41.20;;;4.50;78.30;;;;;;5077148;28;20029;-78
2021/01/10 23:29:48;;;;;;;66.73;42.67;;;4.50;78.10;;;;;;5077193;28;20492;-77
2021/01/10 23:32:14;;;;;;;60.23;41.37;;;4.50;77.90;;;;;;5077051;28;20032;-77
2021/01/10 23:34:39;;;;;;;62.73;42.63;;;4.60;77.90;;;;;;5077290;28;20024;-77
2021/01/10 23:37:11;;;;;;;65.13;43.43;;;4.60;77.90;;;;;;5076937;28;20472;-77
2021/01/10 23:39:37;;;;;;;73.33;44.60;;;4.60;77.70;;;;;;5077414;28;20032;-77
2021/01/10 23:42:03;;;;;;;69.17;43.63;;;4.60;77.70;;;;;;5076874;28;20033;-77
2021/01/10 23:44:28;;;;;;;65.10;43.10;;;4.60;77.80;;;;;;5077411;28;20119;-77
2021/01/10 23:46:54;;;;;;;70.30;46.60;;;4.60;77.90;;;;;;5059089;28;20020;-77
2021/01/10 23:49:20;;;;;;;69.00;44.43;;;4.60;78.20;;;;;;5076912;28;20024;-77
2021/01/10 23:51:45;;;;;;;68.70;45.83;;;4.50;78.30;;;;;;5076870;28;20082;-77
2021/01/10 23:54:11;;;;;;;66.37;44.83;;;4.60;78.20;;;;;;5059477;28;20512;-77
2021/01/10 23:56:37;;;;;;;70.63;46.33;;;4.60;78.30;;;;;;5076719;28;20105;-77
2021/01/10 23:59:03;;;;;;;72.43;47.23;;;4.60;78.20;;;;;;5076638;28;20024;-77
